Terminal Aerodrome Forecast
Issued by NWS Wilmington, NC

Home | Current Version | Previous Version | Text Only | Print | Product List | Glossary On
Versions: 1 2 3 4 5 6 7 8 9 10 11 12 13 14 15 16 17 18 19
514
FTUS42 KILM 022320
TAFMYR
TAF
KMYR 022320Z 0300/0324 30005KT P6SM SCT250
     FM030900 35008KT P6SM SCT250
     FM031400 01011KT P6SM FEW140 SCT200
      AMD LTD TO CLD VIS AND WIND 0304/0311=

USA.gov is the U.S. government's official web portal to all federal, state and local government web resources and services.